sensor_id;sensor_type;location;lat;lon;timestamp;temperature;humidity
10864;DHT22;5485;37.558;126.950;2023-10-08T00:00:26;18.00;1.00
10864;DHT22;5485;37.558;126.950;2023-10-08T00:03:12;18.00;1.00
10864;DHT22;5485;37.558;126.950;2023-10-08T00:05:41;18.20;1.00
10864;DHT22;5485;37.558;126.950;2023-10-08T00:08:08;18.20;1.00
10864;DHT22;5485;37.558;126.950;2023-10-08T00:10:39;18.30;1.00
10864;DHT22;5485;37.558;126.950;2023-10-08T00:13:08;18.40;1.00
10864;DHT22;5485;37.558;126.950;2023-10-08T00:15:36;18.30;1.00
10864;DHT22;5485;37.558;126.950;2023-10-08T00:18:06;18.40;1.00
10864;DHT22;5485;37.558;126.950;2023-10-08T00:20:38;18.50;1.00
10864;DHT22;5485;37.558;126.950;2023-10-08T00:23:23;18.50;1.00
10864;DHT22;5485;37.558;126.950;2023-10-08T00:25:53;18.60;1.00
10864;DHT22;5485;37.558;126.950;2023-10-08T00:28:21;18.90;1.00
10864;DHT22;5485;37.558;126.950;2023-10-08T00:30:48;18.80;1.00
10864;DHT22;5485;37.558;126.950;2023-10-08T00:33:16;18.90;1.00
10864;DHT22;5485;37.558;126.950;2023-10-08T00:35:44;19.00;1.00
10864;DHT22;5485;37.558;126.950;2023-10-08T00:38:11;19.10;1.00
10864;DHT22;5485;37.558;126.950;2023-10-08T00:40:42;18.90;1.00
10864;DHT22;5485;37.558;126.950;2023-10-08T00:43:34;18.90;1.00
10864;DHT22;5485;37.558;126.950;2023-10-08T00:46:06;18.90;1.00
10864;DHT22;5485;37.558;126.950;2023-10-08T00:49:01;18.90;1.00
10864;DHT22;5485;37.558;126.950;2023-10-08T00:51:47;19.00;1.00
10864;DHT22;5485;37.558;126.950;2023-10-08T00:54:15;19.10;1.00
10864;DHT22;5485;37.558;126.950;2023-10-08T00:56:46;19.30;1.00
10864;DHT22;5485;37.558;126.950;2023-10-08T00:59:24;19.30;1.00
10864;DHT22;5485;37.558;126.950;2023-10-08T01:01:52;19.50;1.00
10864;DHT22;5485;37.558;126.950;2023-10-08T01:04:40;19.60;1.00
10864;DHT22;5485;37.558;126.950;2023-10-08T01:07:11;19.70;1.00
10864;DHT22;5485;37.558;126.950;2023-10-08T01:09:40;19.70;1.00
10864;DHT22;5485;37.558;126.950;2023-10-08T01:12:22;19.80;1.00
10864;DHT22;5485;37.558;126.950;2023-10-08T01:14:55;19.70;1.00
10864;DHT22;5485;37.558;126.950;2023-10-08T01:17:39;19.70;1.00
10864;DHT22;5485;37.558;126.950;2023-10-08T01:20:19;19.50;1.00
10864;DHT22;5485;37.558;126.950;2023-10-08T01:23:10;19.30;1.00
10864;DHT22;5485;37.558;126.950;2023-10-08T01:25:43;19.30;1.00
10864;DHT22;5485;37.558;126.950;2023-10-08T01:28:17;19.20;1.00
10864;DHT22;5485;37.558;126.950;2023-10-08T01:30:52;19.10;1.00
10864;DHT22;5485;37.558;126.950;2023-10-08T01:33:21;19.20;1.00
10864;DHT22;5485;37.558;126.950;2023-10-08T01:35:48;19.20;1.00
10864;DHT22;5485;37.558;126.950;2023-10-08T01:38:15;19.30;1.00
10864;DHT22;5485;37.558;126.950;2023-10-08T01:40:49;19.30;1.00
10864;DHT22;5485;37.558;126.950;2023-10-08T01:43:17;19.30;1.00
10864;DHT22;5485;37.558;126.950;2023-10-08T01:45:45;19.30;1.00
10864;DHT22;5485;37.558;126.950;2023-10-08T01:48:16;19.40;1.00
10864;DHT22;5485;37.558;126.950;2023-10-08T01:50:55;19.50;1.00
10864;DHT22;5485;37.558;126.950;2023-10-08T01:53:39;19.50;1.00
10864;DHT22;5485;37.558;126.950;2023-10-08T01:56:07;19.70;1.00
10864;DHT22;5485;37.558;126.950;2023-10-08T01:58:37;19.80;1.00
10864;DHT22;5485;37.558;126.950;2023-10-08T02:01:04;19.90;1.00
10864;DHT22;5485;37.558;126.950;2023-10-08T02:03:38;20.00;1.00
10864;DHT22;5485;37.558;126.950;2023-10-08T02:06:05;20.00;1.00
10864;DHT22;5485;37.558;126.950;2023-10-08T02:08:35;20.00;1.00
10864;DHT22;5485;37.558;126.950;2023-10-08T02:11:02;20.00;1.00
10864;DHT22;5485;37.558;126.950;2023-10-08T02:13:29;20.10;1.00
10864;DHT22;5485;37.558;126.950;2023-10-08T02:16:01;20.10;1.00
10864;DHT22;5485;37.558;126.950;2023-10-08T02:18:31;20.30;1.00
10864;DHT22;5485;37.558;126.950;2023-10-08T02:21:00;20.40;1.00
10864;DHT22;5485;37.558;126.950;2023-10-08T02:23:27;20.40;1.00
10864;DHT22;5485;37.558;126.950;2023-10-08T02:25:54;20.30;1.00
10864;DHT22;5485;37.558;126.950;2023-10-08T02:28:21;20.50;1.00
10864;DHT22;5485;37.558;126.950;2023-10-08T02:30:50;20.60;1.00
10864;DHT22;5485;37.558;126.950;2023-10-08T02:33:20;20.60;1.00
10864;DHT22;5485;37.558;126.950;2023-10-08T02:35:47;20.70;1.00
10864;DHT22;5485;37.558;126.950;2023-10-08T02:38:17;20.70;1.00
10864;DHT22;5485;37.558;126.950;2023-10-08T02:40:51;20.60;1.00
10864;DHT22;5485;37.558;126.950;2023-10-08T02:43:27;20.50;1.00
10864;DHT22;5485;37.558;126.950;2023-10-08T02:45:55;20.50;1.00
10864;DHT22;5485;37.558;126.950;2023-10-08T02:48:22;20.40;1.00
10864;DHT22;5485;37.558;126.950;2023-10-08T02:50:53;20.30;1.00
10864;DHT22;5485;37.558;126.950;2023-10-08T02:53:20;20.20;1.00
10864;DHT22;5485;37.558;126.950;2023-10-08T02:55:52;20.10;1.00
10864;DHT22;5485;37.558;126.950;2023-10-08T02:58:20;20.10;1.00
10864;DHT22;5485;37.558;126.950;2023-10-08T03:00:49;20.00;1.00
10864;DHT22;5485;37.558;126.950;2023-10-08T03:03:19;20.00;1.00
10864;DHT22;5485;37.558;126.950;2023-10-08T03:05:49;19.90;1.00
10864;DHT22;5485;37.558;126.950;2023-10-08T03:08:18;19.90;1.00
10864;DHT22;5485;37.558;126.950;2023-10-08T03:10:49;19.80;1.00
10864;DHT22;5485;37.558;126.950;2023-10-08T03:13:22;19.90;1.00
10864;DHT22;5485;37.558;126.950;2023-10-08T03:15:49;19.90;1.00
10864;DHT22;5485;37.558;126.950;2023-10-08T03:18:37;19.90;1.00
10864;DHT22;5485;37.558;126.950;2023-10-08T03:21:16;20.00;1.00
10864;DHT22;5485;37.558;126.950;2023-10-08T03:24:01;20.00;1.00
10864;DHT22;5485;37.558;126.950;2023-10-08T03:26:39;20.10;1.00
10864;DHT22;5485;37.558;126.950;2023-10-08T03:29:06;19.90;1.00
10864;DHT22;5485;37.558;126.950;2023-10-08T03:31:42;20.00;1.00
10864;DHT22;5485;37.558;126.950;2023-10-08T03:34:16;19.70;1.00
10864;DHT22;5485;37.558;126.950;2023-10-08T03:36:46;19.70;1.00
10864;DHT22;5485;37.558;126.950;2023-10-08T03:39:14;19.60;1.00
10864;DHT22;5485;37.558;126.950;2023-10-08T03:41:42;19.50;1.00
10864;DHT22;5485;37.558;126.950;2023-10-08T03:44:18;19.30;1.00
10864;DHT22;5485;37.558;126.950;2023-10-08T03:46:46;19.10;1.00
10864;DHT22;5485;37.558;126.950;2023-10-08T03:49:14;19.10;1.00
10864;DHT22;5485;37.558;126.950;2023-10-08T03:51:47;19.10;1.00
10864;DHT22;5485;37.558;126.950;2023-10-08T03:54:21;19.20;1.00
10864;DHT22;5485;37.558;126.950;2023-10-08T03:57:17;19.20;1.00
10864;DHT22;5485;37.558;126.950;2023-10-08T04:00:09;19.40;1.00
10864;DHT22;5485;37.558;126.950;2023-10-08T04:02:44;19.70;1.00
10864;DHT22;5485;37.558;126.950;2023-10-08T04:05:27;19.80;1.00
10864;DHT22;5485;37.558;126.950;2023-10-08T04:07:59;19.90;1.00
10864;DHT22;5485;37.558;126.950;2023-10-08T04:10:30;19.90;1.00
10864;DHT22;5485;37.558;126.950;2023-10-08T04:13:02;19.90;1.00
10864;DHT22;5485;37.558;126.950;2023-10-08T04:15:29;20.00;1.00
10864;DHT22;5485;37.558;126.950;2023-10-08T04:17:56;20.00;1.00
10864;DHT22;5485;37.558;126.950;2023-10-08T04:20:24;20.00;1.00
10864;DHT22;5485;37.558;126.950;2023-10-08T04:23:06;20.10;1.00
10864;DHT22;5485;37.558;126.950;2023-10-08T04:25:40;20.00;1.00
10864;DHT22;5485;37.558;126.950;2023-10-08T04:28:12;20.00;1.00
10864;DHT22;5485;37.558;126.950;2023-10-08T04:30:43;20.00;1.00
10864;DHT22;5485;37.558;126.950;2023-10-08T04:33:12;19.90;1.00
10864;DHT22;5485;37.558;126.950;2023-10-08T04:35:43;19.90;1.00
10864;DHT22;5485;37.558;126.950;2023-10-08T04:38:28;19.90;1.00
10864;DHT22;5485;37.558;126.950;2023-10-08T04:40:56;20.00;1.00
10864;DHT22;5485;37.558;126.950;2023-10-08T04:43:28;20.00;1.00
10864;DHT22;5485;37.558;126.950;2023-10-08T04:46:00;20.00;1.00
10864;DHT22;5485;37.558;126.950;2023-10-08T04:48:47;20.00;1.00
10864;DHT22;5485;37.558;126.950;2023-10-08T04:51:16;20.10;1.00
10864;DHT22;5485;37.558;126.950;2023-10-08T04:53:44;20.20;1.00
10864;DHT22;5485;37.558;126.950;2023-10-08T04:56:14;20.20;1.00
10864;DHT22;5485;37.558;126.950;2023-10-08T04:58:47;20.20;1.00
10864;DHT22;5485;37.558;126.950;2023-10-08T05:01:17;20.20;1.00
10864;DHT22;5485;37.558;126.950;2023-10-08T05:03:49;20.20;1.00
10864;DHT22;5485;37.558;126.950;2023-10-08T05:06:30;20.20;1.00
10864;DHT22;5485;37.558;126.950;2023-10-08T05:09:07;20.20;1.00
10864;DHT22;5485;37.558;126.950;2023-10-08T05:11:50;20.20;1.00
10864;DHT22;5485;37.558;126.950;2023-10-08T05:14:22;20.30;1.00
10864;DHT22;5485;37.558;126.950;2023-10-08T05:17:15;20.30;1.00
10864;DHT22;5485;37.558;126.950;2023-10-08T05:19:44;20.20;1.00
10864;DHT22;5485;37.558;126.950;2023-10-08T05:22:18;20.30;1.00
10864;DHT22;5485;37.558;126.950;2023-10-08T05:24:48;20.30;1.00
10864;DHT22;5485;37.558;126.950;2023-10-08T05:27:38;20.30;1.00
10864;DHT22;5485;37.558;126.950;2023-10-08T05:30:26;20.30;1.00
10864;DHT22;5485;37.558;126.950;2023-10-08T05:33:19;20.40;1.00
10864;DHT22;5485;37.558;126.950;2023-10-08T05:36:04;20.30;1.00
10864;DHT22;5485;37.558;126.950;2023-10-08T05:38:44;20.20;1.00
10864;DHT22;5485;37.558;126.950;2023-10-08T05:41:29;20.20;1.00
10864;DHT22;5485;37.558;126.950;2023-10-08T05:44:06;20.30;1.00
10864;DHT22;5485;37.558;126.950;2023-10-08T05:46:42;20.40;1.00
10864;DHT22;5485;37.558;126.950;2023-10-08T05:49:35;20.40;1.00
10864;DHT22;5485;37.558;126.950;2023-10-08T05:52:05;20.50;1.00
10864;DHT22;5485;37.558;126.950;2023-10-08T05:54:33;20.40;1.00
10864;DHT22;5485;37.558;126.950;2023-10-08T05:57:13;20.50;1.00
10864;DHT22;5485;37.558;126.950;2023-10-08T05:59:44;20.60;1.00
10864;DHT22;5485;37.558;126.950;2023-10-08T06:02:26;20.70;1.00
10864;DHT22;5485;37.558;126.950;2023-10-08T06:05:01;20.70;1.00
10864;DHT22;5485;37.558;126.950;2023-10-08T06:07:54;20.80;1.00
10864;DHT22;5485;37.558;126.950;2023-10-08T06:10:26;20.70;1.00
10864;DHT22;5485;37.558;126.950;2023-10-08T06:15:44;20.60;1.00
10864;DHT22;5485;37.558;126.950;2023-10-08T06:18:26;20.70;1.00
10864;DHT22;5485;37.558;126.950;2023-10-08T06:20:54;20.80;1.00
10864;DHT22;5485;37.558;126.950;2023-10-08T06:23:22;20.80;1.00
10864;DHT22;5485;37.558;126.950;2023-10-08T06:25:52;20.80;1.00
10864;DHT22;5485;37.558;126.950;2023-10-08T06:28:39;20.80;1.00
10864;DHT22;5485;37.558;126.950;2023-10-08T06:31:06;20.90;1.00
10864;DHT22;5485;37.558;126.950;2023-10-08T06:33:44;21.00;1.00
10864;DHT22;5485;37.558;126.950;2023-10-08T06:36:12;20.90;1.00
10864;DHT22;5485;37.558;126.950;2023-10-08T06:38:44;20.70;1.00
10864;DHT22;5485;37.558;126.950;2023-10-08T06:41:15;20.70;1.00
10864;DHT22;5485;37.558;126.950;2023-10-08T06:43:48;20.60;1.00
10864;DHT22;5485;37.558;126.950;2023-10-08T06:46:17;20.60;1.00
10864;DHT22;5485;37.558;126.950;2023-10-08T06:48:47;20.60;1.00
10864;DHT22;5485;37.558;126.950;2023-10-08T06:51:16;20.70;1.00
10864;DHT22;5485;37.558;126.950;2023-10-08T06:53:47;20.70;1.00
10864;DHT22;5485;37.558;126.950;2023-10-08T06:56:15;20.50;1.00
10864;DHT22;5485;37.558;126.950;2023-10-08T06:58:45;20.50;1.00
10864;DHT22;5485;37.558;126.950;2023-10-08T07:01:19;20.60;1.00
10864;DHT22;5485;37.558;126.950;2023-10-08T07:03:51;20.40;1.00
10864;DHT22;5485;37.558;126.950;2023-10-08T07:06:22;20.40;1.00
10864;DHT22;5485;37.558;126.950;2023-10-08T07:08:53;20.30;1.00
10864;DHT22;5485;37.558;126.950;2023-10-08T07:11:26;20.30;1.00
10864;DHT22;5485;37.558;126.950;2023-10-08T07:13:53;20.30;1.00
10864;DHT22;5485;37.558;126.950;2023-10-08T07:16:21;20.30;1.00
10864;DHT22;5485;37.558;126.950;2023-10-08T07:18:49;20.20;1.00
10864;DHT22;5485;37.558;126.950;2023-10-08T07:21:21;20.20;1.00
10864;DHT22;5485;37.558;126.950;2023-10-08T07:24:13;20.10;1.00
10864;DHT22;5485;37.558;126.950;2023-10-08T07:26:44;20.00;1.00
10864;DHT22;5485;37.558;126.950;2023-10-08T07:29:15;20.00;1.00
10864;DHT22;5485;37.558;126.950;2023-10-08T07:31:46;20.10;1.00
10864;DHT22;5485;37.558;126.950;2023-10-08T07:34:19;20.00;1.00
10864;DHT22;5485;37.558;126.950;2023-10-08T07:36:57;20.00;1.00
10864;DHT22;5485;37.558;126.950;2023-10-08T07:39:24;19.90;1.00
10864;DHT22;5485;37.558;126.950;2023-10-08T07:42:02;19.90;1.00
10864;DHT22;5485;37.558;126.950;2023-10-08T07:44:32;19.90;1.00
10864;DHT22;5485;37.558;126.950;2023-10-08T07:47:02;19.80;1.00
10864;DHT22;5485;37.558;126.950;2023-10-08T07:49:47;19.60;1.00
10864;DHT22;5485;37.558;126.950;2023-10-08T07:52:14;19.60;1.00
10864;DHT22;5485;37.558;126.950;2023-10-08T07:54:42;19.50;1.00
10864;DHT22;5485;37.558;126.950;2023-10-08T07:57:09;19.40;1.00
10864;DHT22;5485;37.558;126.950;2023-10-08T07:59:43;19.40;1.00
10864;DHT22;5485;37.558;126.950;2023-10-08T08:02:15;19.40;1.00
10864;DHT22;5485;37.558;126.950;2023-10-08T08:04:44;19.40;1.00
10864;DHT22;5485;37.558;126.950;2023-10-08T08:07:17;19.30;1.00
10864;DHT22;5485;37.558;126.950;2023-10-08T08:09:44;19.30;1.00
10864;DHT22;5485;37.558;126.950;2023-10-08T08:12:26;19.20;1.00
10864;DHT22;5485;37.558;126.950;2023-10-08T08:14:54;19.10;1.00
10864;DHT22;5485;37.558;126.950;2023-10-08T08:17:22;19.10;1.00
10864;DHT22;5485;37.558;126.950;2023-10-08T08:19:50;19.10;1.00
10864;DHT22;5485;37.558;126.950;2023-10-08T08:22:20;19.00;1.00
10864;DHT22;5485;37.558;126.950;2023-10-08T08:24:57;18.90;1.00
10864;DHT22;5485;37.558;126.950;2023-10-08T08:27:42;18.90;1.00
10864;DHT22;5485;37.558;126.950;2023-10-08T08:30:13;18.80;1.00
10864;DHT22;5485;37.558;126.950;2023-10-08T08:32:45;18.80;1.00
10864;DHT22;5485;37.558;126.950;2023-10-08T08:35:17;18.80;1.00
10864;DHT22;5485;37.558;126.950;2023-10-08T08:37:46;18.70;1.00
10864;DHT22;5485;37.558;126.950;2023-10-08T08:40:37;18.70;1.00
10864;DHT22;5485;37.558;126.950;2023-10-08T08:43:05;18.60;1.00
10864;DHT22;5485;37.558;126.950;2023-10-08T08:45:35;18.60;1.00
10864;DHT22;5485;37.558;126.950;2023-10-08T08:48:07;18.50;1.00
10864;DHT22;5485;37.558;126.950;2023-10-08T08:50:35;18.50;1.00
10864;DHT22;5485;37.558;126.950;2023-10-08T08:53:04;18.50;1.00
10864;DHT22;5485;37.558;126.950;2023-10-08T08:55:32;18.50;1.00
10864;DHT22;5485;37.558;126.950;2023-10-08T08:58:02;18.50;1.00
10864;DHT22;5485;37.558;126.950;2023-10-08T09:00:31;18.50;1.00
10864;DHT22;5485;37.558;126.950;2023-10-08T09:02:58;18.40;1.00
10864;DHT22;5485;37.558;126.950;2023-10-08T09:05:26;18.40;1.00
10864;DHT22;5485;37.558;126.950;2023-10-08T09:08:01;18.30;1.00
10864;DHT22;5485;37.558;126.950;2023-10-08T09:10:34;18.30;1.00
10864;DHT22;5485;37.558;126.950;2023-10-08T09:13:06;18.20;1.00
10864;DHT22;5485;37.558;126.950;2023-10-08T09:15:35;18.20;1.00
10864;DHT22;5485;37.558;126.950;2023-10-08T09:18:08;18.20;1.00
10864;DHT22;5485;37.558;126.950;2023-10-08T09:20:38;18.20;1.00
10864;DHT22;5485;37.558;126.950;2023-10-08T09:23:15;18.20;1.00
10864;DHT22;5485;37.558;126.950;2023-10-08T09:25:45;18.10;1.00
10864;DHT22;5485;37.558;126.950;2023-10-08T09:28:12;18.10;1.00
10864;DHT22;5485;37.558;126.950;2023-10-08T09:30:43;18.10;1.00
10864;DHT22;5485;37.558;126.950;2023-10-08T09:33:14;18.00;1.00
10864;DHT22;5485;37.558;126.950;2023-10-08T09:35:46;18.00;1.00
10864;DHT22;5485;37.558;126.950;2023-10-08T09:38:13;18.00;1.00
10864;DHT22;5485;37.558;126.950;2023-10-08T09:40:49;18.00;1.00
10864;DHT22;5485;37.558;126.950;2023-10-08T09:43:16;18.00;1.00
10864;DHT22;5485;37.558;126.950;2023-10-08T09:45:51;18.00;1.00
10864;DHT22;5485;37.558;126.950;2023-10-08T09:48:21;18.00;1.00
10864;DHT22;5485;37.558;126.950;2023-10-08T09:50:51;18.00;1.00
10864;DHT22;5485;37.558;126.950;2023-10-08T09:53:40;18.00;1.00
10864;DHT22;5485;37.558;126.950;2023-10-08T09:56:14;18.00;1.00
10864;DHT22;5485;37.558;126.950;2023-10-08T09:58:44;17.90;1.00
10864;DHT22;5485;37.558;126.950;2023-10-08T10:01:22;17.90;1.00
10864;DHT22;5485;37.558;126.950;2023-10-08T10:03:52;17.90;1.00
10864;DHT22;5485;37.558;126.950;2023-10-08T10:06:20;17.90;1.00
10864;DHT22;5485;37.558;126.950;2023-10-08T10:08:49;17.90;1.00
10864;DHT22;5485;37.558;126.950;2023-10-08T10:11:16;17.90;1.00
10864;DHT22;5485;37.558;126.950;2023-10-08T10:13:45;17.80;1.00
10864;DHT22;5485;37.558;126.950;2023-10-08T10:16:18;17.80;1.00
10864;DHT22;5485;37.558;126.950;2023-10-08T10:18:46;17.80;1.00
10864;DHT22;5485;37.558;126.950;2023-10-08T10:23:46;17.90;1.00
10864;DHT22;5485;37.558;126.950;2023-10-08T10:26:35;17.80;1.00
10864;DHT22;5485;37.558;126.950;2023-10-08T10:31:51;17.80;1.00
10864;DHT22;5485;37.558;126.950;2023-10-08T10:34:24;17.80;1.00
10864;DHT22;5485;37.558;126.950;2023-10-08T10:36:55;17.80;1.00
10864;DHT22;5485;37.558;126.950;2023-10-08T10:39:25;17.80;1.00
10864;DHT22;5485;37.558;126.950;2023-10-08T10:42:01;17.80;1.00
10864;DHT22;5485;37.558;126.950;2023-10-08T10:44:31;17.80;1.00
10864;DHT22;5485;37.558;126.950;2023-10-08T10:47:00;17.80;1.00
10864;DHT22;5485;37.558;126.950;2023-10-08T10:49:49;17.80;1.00
10864;DHT22;5485;37.558;126.950;2023-10-08T10:52:27;17.80;1.00
10864;DHT22;5485;37.558;126.950;2023-10-08T10:55:19;17.70;1.00
10864;DHT22;5485;37.558;126.950;2023-10-08T10:57:55;17.70;1.00
10864;DHT22;5485;37.558;126.950;2023-10-08T11:00:23;17.70;1.00
10864;DHT22;5485;37.558;126.950;2023-10-08T11:03:01;17.70;1.00
10864;DHT22;5485;37.558;126.950;2023-10-08T11:05:57;17.70;1.00
10864;DHT22;5485;37.558;126.950;2023-10-08T11:08:26;17.80;1.00
10864;DHT22;5485;37.558;126.950;2023-10-08T11:11:01;17.80;1.00
10864;DHT22;5485;37.558;126.950;2023-10-08T11:13:34;17.80;1.00
10864;DHT22;5485;37.558;126.950;2023-10-08T11:16:06;17.80;1.00
10864;DHT22;5485;37.558;126.950;2023-10-08T11:18:53;17.80;1.00
10864;DHT22;5485;37.558;126.950;2023-10-08T11:21:32;17.70;1.00
10864;DHT22;5485;37.558;126.950;2023-10-08T11:24:02;17.70;1.00
10864;DHT22;5485;37.558;126.950;2023-10-08T11:26:43;17.70;1.00
10864;DHT22;5485;37.558;126.950;2023-10-08T11:29:27;17.70;1.00
10864;DHT22;5485;37.558;126.950;2023-10-08T11:31:56;17.70;1.00
10864;DHT22;5485;37.558;126.950;2023-10-08T11:34:23;17.70;1.00
10864;DHT22;5485;37.558;126.950;2023-10-08T11:37:02;17.80;1.00
10864;DHT22;5485;37.558;126.950;2023-10-08T11:39:40;17.70;1.00
10864;DHT22;5485;37.558;126.950;2023-10-08T11:42:11;17.70;1.00
10864;DHT22;5485;37.558;126.950;2023-10-08T11:44:57;17.70;1.00
10864;DHT22;5485;37.558;126.950;2023-10-08T11:47:45;17.70;1.00
10864;DHT22;5485;37.558;126.950;2023-10-08T11:50:17;17.70;1.00
10864;DHT22;5485;37.558;126.950;2023-10-08T11:52:46;17.60;1.00
10864;DHT22;5485;37.558;126.950;2023-10-08T11:55:16;17.60;1.00
10864;DHT22;5485;37.558;126.950;2023-10-08T11:57:52;17.60;1.00
10864;DHT22;5485;37.558;126.950;2023-10-08T12:00:19;17.50;1.00
10864;DHT22;5485;37.558;126.950;2023-10-08T12:02:47;17.50;1.00
10864;DHT22;5485;37.558;126.950;2023-10-08T12:05:17;17.50;1.00
10864;DHT22;5485;37.558;126.950;2023-10-08T12:07:51;17.50;1.00
10864;DHT22;5485;37.558;126.950;2023-10-08T12:10:19;17.50;1.00
10864;DHT22;5485;37.558;126.950;2023-10-08T12:12:50;17.50;1.00
10864;DHT22;5485;37.558;126.950;2023-10-08T12:15:22;17.50;1.00
10864;DHT22;5485;37.558;126.950;2023-10-08T12:17:57;17.50;1.00
10864;DHT22;5485;37.558;126.950;2023-10-08T12:20:42;17.40;1.00
10864;DHT22;5485;37.558;126.950;2023-10-08T12:23:11;17.40;1.00
10864;DHT22;5485;37.558;126.950;2023-10-08T12:25:55;17.40;1.00
10864;DHT22;5485;37.558;126.950;2023-10-08T12:28:25;17.40;1.00
10864;DHT22;5485;37.558;126.950;2023-10-08T12:30:58;17.40;1.00
10864;DHT22;5485;37.558;126.950;2023-10-08T12:33:27;17.30;1.00
10864;DHT22;5485;37.558;126.950;2023-10-08T12:35:56;17.30;1.00
10864;DHT22;5485;37.558;126.950;2023-10-08T12:38:40;17.40;1.00
10864;DHT22;5485;37.558;126.950;2023-10-08T12:41:10;17.40;1.00
10864;DHT22;5485;37.558;126.950;2023-10-08T12:43:43;17.40;1.00
10864;DHT22;5485;37.558;126.950;2023-10-08T12:46:21;17.40;1.00
10864;DHT22;5485;37.558;126.950;2023-10-08T12:48:52;17.40;1.00
10864;DHT22;5485;37.558;126.950;2023-10-08T12:51:21;17.30;1.00
10864;DHT22;5485;37.558;126.950;2023-10-08T12:53:52;17.30;1.00
10864;DHT22;5485;37.558;126.950;2023-10-08T12:56:30;17.30;1.00
10864;DHT22;5485;37.558;126.950;2023-10-08T12:59:11;17.30;1.00
10864;DHT22;5485;37.558;126.950;2023-10-08T13:01:47;17.40;1.00
10864;DHT22;5485;37.558;126.950;2023-10-08T13:04:18;17.40;1.00
10864;DHT22;5485;37.558;126.950;2023-10-08T13:06:56;17.30;1.00
10864;DHT22;5485;37.558;126.950;2023-10-08T13:09:24;17.40;1.00
10864;DHT22;5485;37.558;126.950;2023-10-08T13:11:52;17.40;1.00
10864;DHT22;5485;37.558;126.950;2023-10-08T13:14:19;17.30;1.00
10864;DHT22;5485;37.558;126.950;2023-10-08T13:16:56;17.30;1.00
10864;DHT22;5485;37.558;126.950;2023-10-08T13:19:23;17.30;1.00
10864;DHT22;5485;37.558;126.950;2023-10-08T13:21:50;17.40;1.00
10864;DHT22;5485;37.558;126.950;2023-10-08T13:24:21;17.30;1.00
10864;DHT22;5485;37.558;126.950;2023-10-08T13:26:48;17.40;1.00
10864;DHT22;5485;37.558;126.950;2023-10-08T13:29:15;17.40;1.00
10864;DHT22;5485;37.558;126.950;2023-10-08T13:31:44;17.30;1.00
10864;DHT22;5485;37.558;126.950;2023-10-08T13:34:12;17.30;1.00
10864;DHT22;5485;37.558;126.950;2023-10-08T13:36:42;17.30;1.00
10864;DHT22;5485;37.558;126.950;2023-10-08T13:39:14;17.30;1.00
10864;DHT22;5485;37.558;126.950;2023-10-08T13:41:48;17.30;1.00
10864;DHT22;5485;37.558;126.950;2023-10-08T13:44:15;17.30;1.00
10864;DHT22;5485;37.558;126.950;2023-10-08T13:46:44;17.30;1.00
10864;DHT22;5485;37.558;126.950;2023-10-08T13:49:16;17.30;1.00
10864;DHT22;5485;37.558;126.950;2023-10-08T13:51:44;17.30;1.00
10864;DHT22;5485;37.558;126.950;2023-10-08T13:54:13;17.30;1.00
10864;DHT22;5485;37.558;126.950;2023-10-08T13:56:45;17.30;1.00
10864;DHT22;5485;37.558;126.950;2023-10-08T13:59:15;17.30;1.00
10864;DHT22;5485;37.558;126.950;2023-10-08T14:01:44;17.20;1.00
10864;DHT22;5485;37.558;126.950;2023-10-08T14:04:17;17.20;1.00
10864;DHT22;5485;37.558;126.950;2023-10-08T14:06:52;17.20;1.00
10864;DHT22;5485;37.558;126.950;2023-10-08T14:09:22;17.20;1.00
10864;DHT22;5485;37.558;126.950;2023-10-08T14:11:57;17.20;1.00
10864;DHT22;5485;37.558;126.950;2023-10-08T14:14:25;17.20;1.00
10864;DHT22;5485;37.558;126.950;2023-10-08T14:16:56;17.20;1.00
10864;DHT22;5485;37.558;126.950;2023-10-08T14:19:30;17.20;1.00
10864;DHT22;5485;37.558;126.950;2023-10-08T14:22:09;17.10;1.00
10864;DHT22;5485;37.558;126.950;2023-10-08T14:24:40;17.00;1.00
10864;DHT22;5485;37.558;126.950;2023-10-08T14:27:07;17.00;1.00
10864;DHT22;5485;37.558;126.950;2023-10-08T14:29:39;16.90;1.00
10864;DHT22;5485;37.558;126.950;2023-10-08T14:32:16;16.90;1.00
10864;DHT22;5485;37.558;126.950;2023-10-08T14:34:44;16.90;1.00
10864;DHT22;5485;37.558;126.950;2023-10-08T14:37:14;16.90;1.00
10864;DHT22;5485;37.558;126.950;2023-10-08T14:39:59;16.90;1.00
10864;DHT22;5485;37.558;126.950;2023-10-08T14:42:45;16.90;1.00
10864;DHT22;5485;37.558;126.950;2023-10-08T14:45:34;16.80;1.00
10864;DHT22;5485;37.558;126.950;2023-10-08T14:48:04;16.80;1.00
10864;DHT22;5485;37.558;126.950;2023-10-08T14:50:38;16.80;1.00
10864;DHT22;5485;37.558;126.950;2023-10-08T14:53:09;16.80;1.00
10864;DHT22;5485;37.558;126.950;2023-10-08T14:55:37;16.80;1.00
10864;DHT22;5485;37.558;126.950;2023-10-08T14:58:08;16.80;1.00
10864;DHT22;5485;37.558;126.950;2023-10-08T15:00:37;16.70;1.00
10864;DHT22;5485;37.558;126.950;2023-10-08T15:03:05;16.80;1.00
10864;DHT22;5485;37.558;126.950;2023-10-08T15:05:32;16.80;1.00
10864;DHT22;5485;37.558;126.950;2023-10-08T15:07:59;16.70;1.00
10864;DHT22;5485;37.558;126.950;2023-10-08T15:10:29;16.70;1.00
10864;DHT22;5485;37.558;126.950;2023-10-08T15:12:56;16.70;1.00
10864;DHT22;5485;37.558;126.950;2023-10-08T15:15:23;16.70;1.00
10864;DHT22;5485;37.558;126.950;2023-10-08T15:17:51;16.70;1.00
10864;DHT22;5485;37.558;126.950;2023-10-08T15:20:18;16.70;1.00
10864;DHT22;5485;37.558;126.950;2023-10-08T15:22:49;16.70;1.00
10864;DHT22;5485;37.558;126.950;2023-10-08T15:25:19;16.70;1.00
10864;DHT22;5485;37.558;126.950;2023-10-08T15:27:46;16.70;1.00
10864;DHT22;5485;37.558;126.950;2023-10-08T15:30:16;16.70;1.00
10864;DHT22;5485;37.558;126.950;2023-10-08T15:32:48;16.70;1.00
10864;DHT22;5485;37.558;126.950;2023-10-08T15:35:17;16.70;1.00
10864;DHT22;5485;37.558;126.950;2023-10-08T15:37:52;16.70;1.00
10864;DHT22;5485;37.558;126.950;2023-10-08T15:40:20;16.80;1.00
10864;DHT22;5485;37.558;126.950;2023-10-08T15:42:52;16.80;1.00
10864;DHT22;5485;37.558;126.950;2023-10-08T15:45:20;16.80;1.00
10864;DHT22;5485;37.558;126.950;2023-10-08T15:47:54;16.70;1.00
10864;DHT22;5485;37.558;126.950;2023-10-08T15:50:21;16.70;1.00
10864;DHT22;5485;37.558;126.950;2023-10-08T15:52:51;16.80;1.00
10864;DHT22;5485;37.558;126.950;2023-10-08T15:55:19;16.80;1.00
10864;DHT22;5485;37.558;126.950;2023-10-08T15:57:48;16.80;1.00
10864;DHT22;5485;37.558;126.950;2023-10-08T16:00:15;16.80;1.00
10864;DHT22;5485;37.558;126.950;2023-10-08T16:02:42;16.80;1.00
10864;DHT22;5485;37.558;126.950;2023-10-08T16:05:14;16.80;1.00
10864;DHT22;5485;37.558;126.950;2023-10-08T16:07:42;16.80;1.00
10864;DHT22;5485;37.558;126.950;2023-10-08T16:10:10;16.80;1.00
10864;DHT22;5485;37.558;126.950;2023-10-08T16:12:37;16.70;1.00